Pas de pilote en ligne...

Compagnie Fsx-France ! Un nouveau look pour votre VA, par : Julien & Co

 METAR ET TAF INFORMATION
METAR FOR LIBR :
LIBR 242220Z 26004KT 240V300 CAVOK 13/08 Q1007

 AÉROPORT DE AÉROPORT

 INFORMATIONS DE PISTE
Piste 05 Longueur de la piste 1869 m = 6132 ft Largeur de la piste 45 m = 148 ft
Élévation de la piste 46 ft Seuil de la piste déplacés 0 ft Runway heading 53
Piste 23 Longueur de la piste 1869 m = 6132 ft Largeur de la piste 45 m = 148 ft
Élévation de la piste 13 ft Seuil de la piste déplacés 230 ft Runway heading 233
Piste 13 Longueur de la piste 2532 m = 8307 ft Largeur de la piste 45 m = 148 ft
Élévation de la piste 29 ft Seuil de la piste déplacés 0 ft Runway heading 137
Piste 31 Longueur de la piste 2532 m = 8307 ft Largeur de la piste 45 m = 148 ft
Élévation de la piste 26 ft Seuil de la piste déplacés 0 ft Runway heading 317
 AÉROPORT FRÉQUENCES
Type APP Nom BRINDISI A Féquence 36.365 MHZ
Type APP Nom BRINDISI A Féquence 118.4 MHZ
Type GND Nom GND Féquence 31.355 MHZ
Type ILS RWY 32 Nom Féquence 109.5 MHZ
Type TWR Nom BRINDISI T Féquence 118.1 MHZ

 AIDES A LA NAVIGATION
Type VORTAC Nom Brindisi Féquence 113200 KHZ
Type NDB Nom Brindisi Féquence 364 KHZ